sensor_id;sensor_type;location;lat;lon;timestamp;pressure;altitude;pressure_sealevel;temperature;humidity
46241;BME280;31961;52.416;-0.732;2023-02-13T00:00:23;102665.13;;;9.10;97.08
46241;BME280;31961;52.416;-0.732;2023-02-13T00:02:51;102671.28;;;8.69;99.94
46241;BME280;31961;52.416;-0.732;2023-02-13T00:05:18;102675.24;;;8.95;96.31
46241;BME280;31961;52.416;-0.732;2023-02-13T00:07:46;102672.31;;;8.40;99.62
46241;BME280;31961;52.416;-0.732;2023-02-13T00:10:13;102673.62;;;8.35;100.00
46241;BME280;31961;52.416;-0.732;2023-02-13T00:12:41;102668.63;;;8.27;100.00
46241;BME280;31961;52.416;-0.732;2023-02-13T00:15:09;102666.55;;;7.46;100.00
46241;BME280;31961;52.416;-0.732;2023-02-13T00:17:36;102667.13;;;8.06;100.00
46241;BME280;31961;52.416;-0.732;2023-02-13T00:20:04;102664.95;;;7.51;100.00
46241;BME280;31961;52.416;-0.732;2023-02-13T00:22:34;102665.64;;;7.40;100.00
46241;BME280;31961;52.416;-0.732;2023-02-13T00:25:02;102667.67;;;6.50;100.00
46241;BME280;31961;52.416;-0.732;2023-02-13T00:27:29;102666.72;;;7.24;100.00
46241;BME280;31961;52.416;-0.732;2023-02-13T00:29:57;102668.36;;;7.28;100.00
46241;BME280;31961;52.416;-0.732;2023-02-13T00:32:24;102667.51;;;6.61;100.00
46241;BME280;31961;52.416;-0.732;2023-02-13T00:34:51;102667.65;;;6.85;100.00
46241;BME280;31961;52.416;-0.732;2023-02-13T00:37:19;102666.52;;;7.27;100.00
46241;BME280;31961;52.416;-0.732;2023-02-13T00:39:46;102664.09;;;7.26;100.00
46241;BME280;31961;52.416;-0.732;2023-02-13T00:42:13;102661.79;;;7.23;100.00
46241;BME280;31961;52.416;-0.732;2023-02-13T00:44:40;102658.65;;;6.23;100.00
46241;BME280;31961;52.416;-0.732;2023-02-13T00:47:08;102657.10;;;6.37;100.00
46241;BME280;31961;52.416;-0.732;2023-02-13T00:49:35;102648.92;;;6.96;100.00
46241;BME280;31961;52.416;-0.732;2023-02-13T00:52:03;102646.80;;;6.75;100.00
46241;BME280;31961;52.416;-0.732;2023-02-13T00:54:30;102646.14;;;6.73;100.00
46241;BME280;31961;52.416;-0.732;2023-02-13T00:56:56;102649.60;;;6.09;100.00
46241;BME280;31961;52.416;-0.732;2023-02-13T00:59:24;102641.64;;;6.10;100.00
46241;BME280;31961;52.416;-0.732;2023-02-13T01:01:51;102643.93;;;6.40;100.00
46241;BME280;31961;52.416;-0.732;2023-02-13T01:04:19;102638.27;;;7.07;100.00
46241;BME280;31961;52.416;-0.732;2023-02-13T01:06:46;102639.92;;;6.67;100.00
46241;BME280;31961;52.416;-0.732;2023-02-13T01:09:13;102640.79;;;5.74;100.00
46241;BME280;31961;52.416;-0.732;2023-02-13T01:11:41;102634.70;;;5.17;100.00
46241;BME280;31961;52.416;-0.732;2023-02-13T01:14:08;102635.99;;;5.50;100.00
46241;BME280;31961;52.416;-0.732;2023-02-13T01:16:35;102637.14;;;4.64;100.00
46241;BME280;31961;52.416;-0.732;2023-02-13T01:19:04;102635.86;;;5.34;100.00
46241;BME280;31961;52.416;-0.732;2023-02-13T01:21:31;102634.01;;;5.83;100.00
46241;BME280;31961;52.416;-0.732;2023-02-13T01:24:02;102630.04;;;6.01;100.00
46241;BME280;31961;52.416;-0.732;2023-02-13T01:26:30;102623.26;;;7.07;100.00
46241;BME280;31961;52.416;-0.732;2023-02-13T01:28:58;102625.66;;;6.41;100.00
46241;BME280;31961;52.416;-0.732;2023-02-13T01:31:25;102625.98;;;5.81;100.00
46241;BME280;31961;52.416;-0.732;2023-02-13T01:33:55;102623.03;;;6.15;100.00
46241;BME280;31961;52.416;-0.732;2023-02-13T01:36:23;102621.48;;;6.60;100.00
46241;BME280;31961;52.416;-0.732;2023-02-13T01:38:52;102621.81;;;6.67;100.00
46241;BME280;31961;52.416;-0.732;2023-02-13T01:41:20;102626.14;;;5.78;100.00
46241;BME280;31961;52.416;-0.732;2023-02-13T01:43:50;102621.03;;;6.75;100.00
46241;BME280;31961;52.416;-0.732;2023-02-13T01:46:22;102622.60;;;7.52;100.00
46241;BME280;31961;52.416;-0.732;2023-02-13T01:48:52;102626.19;;;6.69;100.00
46241;BME280;31961;52.416;-0.732;2023-02-13T01:51:25;102629.11;;;6.37;100.00
46241;BME280;31961;52.416;-0.732;2023-02-13T01:53:58;102629.90;;;5.86;100.00
46241;BME280;31961;52.416;-0.732;2023-02-13T01:56:30;102628.40;;;6.72;100.00
46241;BME280;31961;52.416;-0.732;2023-02-13T01:59:02;102630.07;;;6.73;100.00
46241;BME280;31961;52.416;-0.732;2023-02-13T02:01:31;102633.77;;;5.64;100.00
46241;BME280;31961;52.416;-0.732;2023-02-13T02:04:03;102628.29;;;6.77;100.00
46241;BME280;31961;52.416;-0.732;2023-02-13T02:06:33;102626.07;;;6.91;100.00
46241;BME280;31961;52.416;-0.732;2023-02-13T02:09:05;102621.77;;;7.23;100.00
46241;BME280;31961;52.416;-0.732;2023-02-13T02:11:46;102620.97;;;7.57;100.00
46241;BME280;31961;52.416;-0.732;2023-02-13T02:14:14;102622.05;;;6.81;100.00
46241;BME280;31961;52.416;-0.732;2023-02-13T02:16:42;102617.41;;;6.92;100.00
46241;BME280;31961;52.416;-0.732;2023-02-13T02:19:15;102619.73;;;7.03;100.00
46241;BME280;31961;52.416;-0.732;2023-02-13T02:21:55;102616.83;;;7.48;100.00
46241;BME280;31961;52.416;-0.732;2023-02-13T02:24:53;102619.93;;;7.61;100.00
46241;BME280;31961;52.416;-0.732;2023-02-13T02:29:11;102618.04;;;6.83;100.00
46241;BME280;31961;52.416;-0.732;2023-02-13T02:32:26;102609.36;;;6.09;100.00
46241;BME280;31961;52.416;-0.732;2023-02-13T02:35:08;102604.96;;;5.59;100.00
46241;BME280;31961;52.416;-0.732;2023-02-13T02:37:50;102603.15;;;6.06;100.00
46241;BME280;31961;52.416;-0.732;2023-02-13T02:40:25;102600.62;;;4.43;100.00
46241;BME280;31961;52.416;-0.732;2023-02-13T02:43:10;102602.69;;;5.14;100.00
46241;BME280;31961;52.416;-0.732;2023-02-13T02:45:47;102597.90;;;6.53;100.00
46241;BME280;31961;52.416;-0.732;2023-02-13T02:48:21;102601.16;;;6.82;100.00
46241;BME280;31961;52.416;-0.732;2023-02-13T02:50:57;102600.01;;;7.18;100.00
46241;BME280;31961;52.416;-0.732;2023-02-13T02:53:34;102604.75;;;6.84;100.00
46241;BME280;31961;52.416;-0.732;2023-02-13T02:56:09;102604.03;;;6.93;100.00
46241;BME280;31961;52.416;-0.732;2023-02-13T02:58:41;102604.08;;;6.86;100.00
46241;BME280;31961;52.416;-0.732;2023-02-13T03:01:14;102601.10;;;7.11;100.00
46241;BME280;31961;52.416;-0.732;2023-02-13T03:03:43;102599.11;;;6.68;100.00
46241;BME280;31961;52.416;-0.732;2023-02-13T03:06:13;102596.95;;;7.60;100.00
46241;BME280;31961;52.416;-0.732;2023-02-13T03:08:44;102599.16;;;7.11;100.00
46241;BME280;31961;52.416;-0.732;2023-02-13T03:11:13;102594.26;;;7.31;100.00
46241;BME280;31961;52.416;-0.732;2023-02-13T03:13:43;102592.80;;;6.93;100.00
46241;BME280;31961;52.416;-0.732;2023-02-13T03:16:17;102593.93;;;6.41;100.00
46241;BME280;31961;52.416;-0.732;2023-02-13T03:18:52;102593.32;;;6.55;100.00
46241;BME280;31961;52.416;-0.732;2023-02-13T03:21:28;102592.65;;;6.34;100.00
46241;BME280;31961;52.416;-0.732;2023-02-13T03:24:03;102589.78;;;5.84;100.00
46241;BME280;31961;52.416;-0.732;2023-02-13T03:26:39;102589.29;;;6.35;100.00
46241;BME280;31961;52.416;-0.732;2023-02-13T03:29:13;102586.78;;;6.31;100.00
46241;BME280;31961;52.416;-0.732;2023-02-13T03:31:51;102585.36;;;6.87;100.00
46241;BME280;31961;52.416;-0.732;2023-02-13T03:34:22;102578.81;;;6.75;100.00
46241;BME280;31961;52.416;-0.732;2023-02-13T03:36:59;102583.22;;;6.06;100.00
46241;BME280;31961;52.416;-0.732;2023-02-13T03:39:37;102582.54;;;6.62;100.00
46241;BME280;31961;52.416;-0.732;2023-02-13T03:42:12;102585.46;;;6.39;100.00
46241;BME280;31961;52.416;-0.732;2023-02-13T03:44:45;102585.19;;;5.73;100.00
46241;BME280;31961;52.416;-0.732;2023-02-13T03:47:14;102580.69;;;6.59;100.00
46241;BME280;31961;52.416;-0.732;2023-02-13T03:49:45;102582.80;;;5.53;100.00
46241;BME280;31961;52.416;-0.732;2023-02-13T03:52:17;102581.38;;;5.22;100.00
46241;BME280;31961;52.416;-0.732;2023-02-13T03:54:50;102584.82;;;5.77;100.00
46241;BME280;31961;52.416;-0.732;2023-02-13T03:57:19;102585.44;;;5.04;100.00
46241;BME280;31961;52.416;-0.732;2023-02-13T03:59:48;102587.71;;;5.11;100.00
46241;BME280;31961;52.416;-0.732;2023-02-13T04:02:20;102582.22;;;4.97;100.00
46241;BME280;31961;52.416;-0.732;2023-02-13T04:04:51;102578.67;;;5.31;100.00
46241;BME280;31961;52.416;-0.732;2023-02-13T04:07:21;102579.54;;;5.65;100.00
46241;BME280;31961;52.416;-0.732;2023-02-13T04:09:50;102576.19;;;5.48;100.00
46241;BME280;31961;52.416;-0.732;2023-02-13T04:12:20;102570.60;;;5.33;100.00
46241;BME280;31961;52.416;-0.732;2023-02-13T04:14:56;102572.67;;;5.09;100.00
46241;BME280;31961;52.416;-0.732;2023-02-13T04:17:30;102567.91;;;5.09;100.00
46241;BME280;31961;52.416;-0.732;2023-02-13T04:20:00;102568.37;;;5.49;100.00
46241;BME280;31961;52.416;-0.732;2023-02-13T04:22:27;102569.40;;;4.82;100.00
46241;BME280;31961;52.416;-0.732;2023-02-13T04:24:54;102572.63;;;5.19;100.00
46241;BME280;31961;52.416;-0.732;2023-02-13T04:27:24;102572.42;;;4.45;100.00
46241;BME280;31961;52.416;-0.732;2023-02-13T04:29:55;102572.61;;;4.73;100.00
46241;BME280;31961;52.416;-0.732;2023-02-13T04:32:22;102570.42;;;4.65;100.00
46241;BME280;31961;52.416;-0.732;2023-02-13T04:34:49;102571.22;;;4.89;100.00
46241;BME280;31961;52.416;-0.732;2023-02-13T04:37:16;102572.71;;;4.90;100.00
46241;BME280;31961;52.416;-0.732;2023-02-13T04:39:43;102572.32;;;5.72;100.00
46241;BME280;31961;52.416;-0.732;2023-02-13T04:42:10;102572.04;;;6.29;100.00
46241;BME280;31961;52.416;-0.732;2023-02-13T04:44:37;102573.04;;;5.36;100.00
46241;BME280;31961;52.416;-0.732;2023-02-13T04:47:04;102570.43;;;5.27;100.00
46241;BME280;31961;52.416;-0.732;2023-02-13T04:49:31;102571.89;;;5.19;100.00
46241;BME280;31961;52.416;-0.732;2023-02-13T04:51:58;102570.02;;;5.69;100.00
46241;BME280;31961;52.416;-0.732;2023-02-13T04:54:26;102571.39;;;5.76;100.00
46241;BME280;31961;52.416;-0.732;2023-02-13T04:56:53;102566.83;;;6.57;100.00
46241;BME280;31961;52.416;-0.732;2023-02-13T04:59:21;102571.30;;;6.06;100.00
46241;BME280;31961;52.416;-0.732;2023-02-13T05:01:48;102575.48;;;5.88;100.00
46241;BME280;31961;52.416;-0.732;2023-02-13T05:04:15;102572.80;;;6.07;100.00
46241;BME280;31961;52.416;-0.732;2023-02-13T05:06:42;102572.02;;;6.28;100.00
46241;BME280;31961;52.416;-0.732;2023-02-13T05:09:09;102573.94;;;5.55;100.00
46241;BME280;31961;52.416;-0.732;2023-02-13T05:11:36;102573.55;;;5.91;100.00
46241;BME280;31961;52.416;-0.732;2023-02-13T05:14:04;102570.58;;;5.47;100.00
46241;BME280;31961;52.416;-0.732;2023-02-13T05:16:31;102567.04;;;5.99;100.00
46241;BME280;31961;52.416;-0.732;2023-02-13T05:18:58;102561.26;;;6.43;100.00
46241;BME280;31961;52.416;-0.732;2023-02-13T05:21:26;102563.39;;;5.77;100.00
46241;BME280;31961;52.416;-0.732;2023-02-13T05:23:53;102561.50;;;6.06;100.00
46241;BME280;31961;52.416;-0.732;2023-02-13T05:26:21;102556.84;;;6.85;100.00
46241;BME280;31961;52.416;-0.732;2023-02-13T05:28:48;102554.37;;;7.24;100.00
46241;BME280;31961;52.416;-0.732;2023-02-13T05:31:15;102554.44;;;6.31;100.00
46241;BME280;31961;52.416;-0.732;2023-02-13T05:33:43;102554.78;;;6.70;100.00
46241;BME280;31961;52.416;-0.732;2023-02-13T05:36:10;102553.03;;;6.67;100.00
46241;BME280;31961;52.416;-0.732;2023-02-13T05:38:38;102549.88;;;6.15;100.00
46241;BME280;31961;52.416;-0.732;2023-02-13T05:41:06;102553.03;;;6.35;100.00
46241;BME280;31961;52.416;-0.732;2023-02-13T05:43:33;102551.54;;;6.31;100.00
46241;BME280;31961;52.416;-0.732;2023-02-13T05:46:02;102553.19;;;5.95;100.00
46241;BME280;31961;52.416;-0.732;2023-02-13T05:48:31;102552.49;;;6.41;100.00
46241;BME280;31961;52.416;-0.732;2023-02-13T05:50:58;102555.94;;;6.11;100.00
46241;BME280;31961;52.416;-0.732;2023-02-13T05:53:26;102565.82;;;5.60;100.00
46241;BME280;31961;52.416;-0.732;2023-02-13T05:55:53;102566.98;;;6.45;100.00
46241;BME280;31961;52.416;-0.732;2023-02-13T05:58:20;102567.75;;;5.80;100.00
46241;BME280;31961;52.416;-0.732;2023-02-13T06:00:47;102563.81;;;6.06;100.00
46241;BME280;31961;52.416;-0.732;2023-02-13T06:03:15;102560.70;;;6.51;100.00
46241;BME280;31961;52.416;-0.732;2023-02-13T06:05:42;102561.04;;;6.05;100.00
46241;BME280;31961;52.416;-0.732;2023-02-13T06:08:10;102560.59;;;5.94;100.00
46241;BME280;31961;52.416;-0.732;2023-02-13T06:10:37;102557.72;;;6.15;100.00
46241;BME280;31961;52.416;-0.732;2023-02-13T06:13:04;102560.71;;;5.46;100.00
46241;BME280;31961;52.416;-0.732;2023-02-13T06:15:31;102557.37;;;6.35;100.00
46241;BME280;31961;52.416;-0.732;2023-02-13T06:17:59;102554.69;;;6.93;100.00
46241;BME280;31961;52.416;-0.732;2023-02-13T06:20:26;102556.15;;;6.54;100.00
46241;BME280;31961;52.416;-0.732;2023-02-13T06:22:53;102552.25;;;6.08;100.00
46241;BME280;31961;52.416;-0.732;2023-02-13T06:25:20;102559.17;;;6.17;100.00
46241;BME280;31961;52.416;-0.732;2023-02-13T06:27:47;102559.69;;;6.21;100.00
46241;BME280;31961;52.416;-0.732;2023-02-13T06:30:16;102560.90;;;5.81;100.00
46241;BME280;31961;52.416;-0.732;2023-02-13T06:32:46;102554.95;;;6.32;100.00
46241;BME280;31961;52.416;-0.732;2023-02-13T06:35:14;102557.40;;;5.59;100.00
46241;BME280;31961;52.416;-0.732;2023-02-13T06:37:42;102557.07;;;5.90;100.00
46241;BME280;31961;52.416;-0.732;2023-02-13T06:40:12;102556.83;;;6.08;100.00
46241;BME280;31961;52.416;-0.732;2023-02-13T06:42:41;102559.04;;;6.11;100.00
46241;BME280;31961;52.416;-0.732;2023-02-13T06:45:09;102560.79;;;6.38;100.00
46241;BME280;31961;52.416;-0.732;2023-02-13T06:47:40;102562.83;;;6.20;100.00
46241;BME280;31961;52.416;-0.732;2023-02-13T06:50:08;102561.93;;;6.21;100.00
46241;BME280;31961;52.416;-0.732;2023-02-13T06:52:36;102559.13;;;6.15;100.00
46241;BME280;31961;52.416;-0.732;2023-02-13T06:55:04;102555.58;;;6.24;100.00
46241;BME280;31961;52.416;-0.732;2023-02-13T06:57:31;102555.43;;;5.76;100.00
46241;BME280;31961;52.416;-0.732;2023-02-13T06:59:59;102551.09;;;5.28;100.00
46241;BME280;31961;52.416;-0.732;2023-02-13T07:02:26;102550.85;;;5.64;100.00
46241;BME280;31961;52.416;-0.732;2023-02-13T07:04:53;102552.64;;;4.95;100.00
46241;BME280;31961;52.416;-0.732;2023-02-13T07:07:20;102557.68;;;5.52;100.00
46241;BME280;31961;52.416;-0.732;2023-02-13T07:09:48;102555.83;;;5.01;100.00
46241;BME280;31961;52.416;-0.732;2023-02-13T07:12:15;102555.27;;;4.07;100.00
46241;BME280;31961;52.416;-0.732;2023-02-13T07:14:42;102562.92;;;5.45;100.00
46241;BME280;31961;52.416;-0.732;2023-02-13T07:17:09;102563.95;;;6.13;100.00
46241;BME280;31961;52.416;-0.732;2023-02-13T07:19:36;102564.84;;;5.85;100.00
46241;BME280;31961;52.416;-0.732;2023-02-13T07:22:03;102561.76;;;6.41;100.00
46241;BME280;31961;52.416;-0.732;2023-02-13T07:24:31;102566.22;;;5.66;100.00
46241;BME280;31961;52.416;-0.732;2023-02-13T07:26:58;102562.95;;;5.93;100.00
46241;BME280;31961;52.416;-0.732;2023-02-13T07:29:25;102559.94;;;6.29;100.00
46241;BME280;31961;52.416;-0.732;2023-02-13T07:31:53;102560.49;;;5.26;100.00
46241;BME280;31961;52.416;-0.732;2023-02-13T07:34:21;102559.69;;;5.21;100.00
46241;BME280;31961;52.416;-0.732;2023-02-13T07:36:48;102565.59;;;5.25;100.00
46241;BME280;31961;52.416;-0.732;2023-02-13T07:39:16;102562.27;;;4.64;100.00
46241;BME280;31961;52.416;-0.732;2023-02-13T07:41:42;102566.11;;;4.81;100.00
46241;BME280;31961;52.416;-0.732;2023-02-13T07:44:10;102567.01;;;5.07;100.00
46241;BME280;31961;52.416;-0.732;2023-02-13T07:46:37;102567.81;;;5.23;100.00
46241;BME280;31961;52.416;-0.732;2023-02-13T07:49:05;102568.50;;;5.39;100.00
46241;BME280;31961;52.416;-0.732;2023-02-13T07:51:32;102566.44;;;5.56;100.00
46241;BME280;31961;52.416;-0.732;2023-02-13T07:54:00;102565.35;;;5.94;100.00
46241;BME280;31961;52.416;-0.732;2023-02-13T07:56:28;102562.92;;;4.73;100.00
46241;BME280;31961;52.416;-0.732;2023-02-13T07:58:55;102565.00;;;5.59;100.00
46241;BME280;31961;52.416;-0.732;2023-02-13T08:01:22;102569.26;;;5.16;100.00
46241;BME280;31961;52.416;-0.732;2023-02-13T08:03:50;102569.76;;;5.44;100.00
46241;BME280;31961;52.416;-0.732;2023-02-13T08:06:18;102569.44;;;4.69;100.00
46241;BME280;31961;52.416;-0.732;2023-02-13T08:08:46;102567.70;;;5.74;100.00
46241;BME280;31961;52.416;-0.732;2023-02-13T08:11:23;102564.07;;;5.04;100.00
46241;BME280;31961;52.416;-0.732;2023-02-13T08:13:53;102558.33;;;4.59;100.00
46241;BME280;31961;52.416;-0.732;2023-02-13T08:16:20;102554.98;;;4.64;100.00
46241;BME280;31961;52.416;-0.732;2023-02-13T08:18:47;102554.89;;;4.84;100.00
46241;BME280;31961;52.416;-0.732;2023-02-13T08:21:14;102552.98;;;4.51;100.00
46241;BME280;31961;52.416;-0.732;2023-02-13T08:23:42;102554.96;;;4.64;100.00
46241;BME280;31961;52.416;-0.732;2023-02-13T08:26:10;102548.04;;;4.39;100.00
46241;BME280;31961;52.416;-0.732;2023-02-13T08:28:37;102549.83;;;4.93;100.00
46241;BME280;31961;52.416;-0.732;2023-02-13T08:31:09;102556.14;;;3.84;100.00
46241;BME280;31961;52.416;-0.732;2023-02-13T08:33:36;102552.19;;;4.36;100.00
46241;BME280;31961;52.416;-0.732;2023-02-13T08:36:05;102560.23;;;4.03;100.00
46241;BME280;31961;52.416;-0.732;2023-02-13T08:38:32;102556.51;;;2.83;100.00
46241;BME280;31961;52.416;-0.732;2023-02-13T08:41:00;102560.10;;;4.21;100.00
46241;BME280;31961;52.416;-0.732;2023-02-13T08:43:27;102561.56;;;3.51;100.00
46241;BME280;31961;52.416;-0.732;2023-02-13T08:45:57;102560.84;;;2.71;100.00
46241;BME280;31961;52.416;-0.732;2023-02-13T08:48:24;102559.14;;;3.57;100.00
46241;BME280;31961;52.416;-0.732;2023-02-13T08:50:52;102558.56;;;3.60;100.00
46241;BME280;31961;52.416;-0.732;2023-02-13T08:53:19;102559.03;;;3.54;100.00
46241;BME280;31961;52.416;-0.732;2023-02-13T08:55:52;102565.04;;;3.40;100.00
46241;BME280;31961;52.416;-0.732;2023-02-13T08:58:20;102562.17;;;2.14;100.00
46241;BME280;31961;52.416;-0.732;2023-02-13T09:00:47;102568.27;;;1.64;100.00
46241;BME280;31961;52.416;-0.732;2023-02-13T09:03:14;102564.21;;;2.67;100.00
46241;BME280;31961;52.416;-0.732;2023-02-13T09:05:42;102556.18;;;2.15;100.00
46241;BME280;31961;52.416;-0.732;2023-02-13T09:08:09;102560.61;;;2.14;100.00
46241;BME280;31961;52.416;-0.732;2023-02-13T09:10:37;102558.37;;;2.90;100.00
46241;BME280;31961;52.416;-0.732;2023-02-13T09:13:05;102555.38;;;2.36;100.00
46241;BME280;31961;52.416;-0.732;2023-02-13T09:15:32;102551.77;;;2.79;100.00
46241;BME280;31961;52.416;-0.732;2023-02-13T09:18:00;102552.22;;;2.98;100.00
46241;BME280;31961;52.416;-0.732;2023-02-13T09:20:27;102552.86;;;3.85;100.00
46241;BME280;31961;52.416;-0.732;2023-02-13T09:22:55;102550.07;;;3.18;100.00
46241;BME280;31961;52.416;-0.732;2023-02-13T09:25:22;102549.17;;;2.45;100.00
46241;BME280;31961;52.416;-0.732;2023-02-13T09:27:50;102548.36;;;2.47;100.00
46241;BME280;31961;52.416;-0.732;2023-02-13T09:30:17;102548.35;;;3.20;100.00
46241;BME280;31961;52.416;-0.732;2023-02-13T09:32:45;102549.82;;;2.96;100.00
46241;BME280;31961;52.416;-0.732;2023-02-13T09:35:12;102547.63;;;2.23;100.00
46241;BME280;31961;52.416;-0.732;2023-02-13T09:37:39;102540.87;;;3.28;100.00
46241;BME280;31961;52.416;-0.732;2023-02-13T09:40:17;102543.56;;;3.41;100.00
46241;BME280;31961;52.416;-0.732;2023-02-13T09:42:44;102544.42;;;3.71;100.00
46241;BME280;31961;52.416;-0.732;2023-02-13T09:45:13;102544.36;;;3.91;100.00
46241;BME280;31961;52.416;-0.732;2023-02-13T09:47:43;102542.14;;;4.28;100.00
46241;BME280;31961;52.416;-0.732;2023-02-13T09:50:14;102547.53;;;3.23;100.00
46241;BME280;31961;52.416;-0.732;2023-02-13T09:52:44;102547.58;;;4.33;100.00
46241;BME280;31961;52.416;-0.732;2023-02-13T09:55:15;102543.08;;;4.57;100.00
46241;BME280;31961;52.416;-0.732;2023-02-13T09:57:49;102550.84;;;4.00;100.00
46241;BME280;31961;52.416;-0.732;2023-02-13T10:00:20;102547.76;;;3.33;100.00
46241;BME280;31961;52.416;-0.732;2023-02-13T10:03:04;102540.05;;;4.80;100.00
46241;BME280;31961;52.416;-0.732;2023-02-13T10:05:41;102541.42;;;5.01;100.00
46241;BME280;31961;52.416;-0.732;2023-02-13T10:08:20;102543.32;;;4.79;100.00
46241;BME280;31961;52.416;-0.732;2023-02-13T10:10:52;102547.04;;;5.14;100.00
46241;BME280;31961;52.416;-0.732;2023-02-13T10:13:43;102546.11;;;5.09;100.00
46241;BME280;31961;52.416;-0.732;2023-02-13T10:16:16;102545.00;;;5.17;100.00
46241;BME280;31961;52.416;-0.732;2023-02-13T10:18:49;102544.96;;;4.75;100.00
46241;BME280;31961;52.416;-0.732;2023-02-13T10:21:20;102540.48;;;5.42;100.00
46241;BME280;31961;52.416;-0.732;2023-02-13T10:23:52;102536.60;;;4.58;100.00
46241;BME280;31961;52.416;-0.732;2023-02-13T10:26:23;102538.06;;;5.53;100.00
46241;BME280;31961;52.416;-0.732;2023-02-13T10:28:56;102535.43;;;5.11;100.00
46241;BME280;31961;52.416;-0.732;2023-02-13T10:31:25;102533.71;;;5.41;100.00
46241;BME280;31961;52.416;-0.732;2023-02-13T10:33:58;102534.52;;;5.42;100.00
46241;BME280;31961;52.416;-0.732;2023-02-13T10:36:27;102534.15;;;5.56;100.00
46241;BME280;31961;52.416;-0.732;2023-02-13T10:39:01;102536.08;;;5.23;100.00
46241;BME280;31961;52.416;-0.732;2023-02-13T10:41:40;102533.92;;;6.08;100.00
46241;BME280;31961;52.416;-0.732;2023-02-13T10:44:22;102536.78;;;6.17;100.00
46241;BME280;31961;52.416;-0.732;2023-02-13T10:46:59;102536.62;;;5.38;100.00
46241;BME280;31961;52.416;-0.732;2023-02-13T10:49:37;102530.55;;;4.89;100.00
46241;BME280;31961;52.416;-0.732;2023-02-13T10:52:16;102529.10;;;5.33;100.00
46241;BME280;31961;52.416;-0.732;2023-02-13T10:55:07;102526.70;;;5.55;100.00
46241;BME280;31961;52.416;-0.732;2023-02-13T10:57:51;102522.66;;;4.35;100.00
46241;BME280;31961;52.416;-0.732;2023-02-13T11:00:26;102524.47;;;5.75;100.00
46241;BME280;31961;52.416;-0.732;2023-02-13T11:02:57;102528.16;;;5.64;100.00
46241;BME280;31961;52.416;-0.732;2023-02-13T11:05:31;102529.09;;;4.51;100.00
46241;BME280;31961;52.416;-0.732;2023-02-13T11:07:58;102524.82;;;4.36;100.00
46241;BME280;31961;52.416;-0.732;2023-02-13T11:10:26;102522.71;;;4.75;100.00
46241;BME280;31961;52.416;-0.732;2023-02-13T11:12:53;102527.69;;;4.94;100.00
46241;BME280;31961;52.416;-0.732;2023-02-13T11:15:23;102525.72;;;4.38;100.00
46241;BME280;31961;52.416;-0.732;2023-02-13T11:17:53;102523.53;;;4.67;100.00
46241;BME280;31961;52.416;-0.732;2023-02-13T11:20:26;102521.23;;;5.05;100.00
46241;BME280;31961;52.416;-0.732;2023-02-13T11:22:54;102513.59;;;5.28;100.00
46241;BME280;31961;52.416;-0.732;2023-02-13T11:25:24;102513.16;;;6.33;100.00
46241;BME280;31961;52.416;-0.732;2023-02-13T11:28:03;102512.62;;;5.88;100.00
46241;BME280;31961;52.416;-0.732;2023-02-13T11:30:35;102511.05;;;3.26;100.00
46241;BME280;31961;52.416;-0.732;2023-02-13T11:33:05;102510.72;;;3.74;100.00
46241;BME280;31961;52.416;-0.732;2023-02-13T11:35:34;102514.48;;;3.69;100.00
46241;BME280;31961;52.416;-0.732;2023-02-13T11:38:18;102515.35;;;4.47;100.00
46241;BME280;31961;52.416;-0.732;2023-02-13T11:40:49;102513.83;;;4.83;100.00
46241;BME280;31961;52.416;-0.732;2023-02-13T11:43:18;102507.67;;;5.17;100.00
46241;BME280;31961;52.416;-0.732;2023-02-13T11:46:00;102509.57;;;5.13;100.00
46241;BME280;31961;52.416;-0.732;2023-02-13T11:48:28;102503.85;;;4.57;100.00
46241;BME280;31961;52.416;-0.732;2023-02-13T11:50:56;102499.07;;;4.87;100.00
46241;BME280;31961;52.416;-0.732;2023-02-13T11:53:26;102490.80;;;5.87;100.00
46241;BME280;31961;52.416;-0.732;2023-02-13T11:56:07;102481.82;;;5.14;100.00
46241;BME280;31961;52.416;-0.732;2023-02-13T11:58:35;102472.50;;;5.94;100.00
46241;BME280;31961;52.416;-0.732;2023-02-13T12:01:24;102469.82;;;4.18;100.00
46241;BME280;31961;52.416;-0.732;2023-02-13T12:04:14;102470.20;;;3.70;100.00
46241;BME280;31961;52.416;-0.732;2023-02-13T12:06:57;102461.30;;;4.91;100.00
46241;BME280;31961;52.416;-0.732;2023-02-13T12:09:26;102462.37;;;5.59;100.00
46241;BME280;31961;52.416;-0.732;2023-02-13T12:11:56;102464.65;;;4.73;100.00
46241;BME280;31961;52.416;-0.732;2023-02-13T12:14:29;102461.68;;;4.43;100.00
46241;BME280;31961;52.416;-0.732;2023-02-13T12:17:00;102458.96;;;5.45;100.00
46241;BME280;31961;52.416;-0.732;2023-02-13T12:19:38;102459.07;;;5.45;100.00
46241;BME280;31961;52.416;-0.732;2023-02-13T12:22:16;102454.60;;;5.76;100.00
46241;BME280;31961;52.416;-0.732;2023-02-13T12:25:00;102460.93;;;4.41;100.00
46241;BME280;31961;52.416;-0.732;2023-02-13T12:27:43;102454.56;;;6.23;100.00
46241;BME280;31961;52.416;-0.732;2023-02-13T12:30:57;102457.03;;;6.17;100.00
46241;BME280;31961;52.416;-0.732;2023-02-13T12:33:49;102455.94;;;7.36;100.00
46241;BME280;31961;52.416;-0.732;2023-02-13T12:36:22;102451.99;;;7.61;100.00
46241;BME280;31961;52.416;-0.732;2023-02-13T12:39:04;102444.72;;;8.13;100.00
46241;BME280;31961;52.416;-0.732;2023-02-13T12:41:40;102445.75;;;7.74;100.00
46241;BME280;31961;52.416;-0.732;2023-02-13T12:44:26;102440.54;;;8.10;100.00
46241;BME280;31961;52.416;-0.732;2023-02-13T12:47:07;102437.80;;;8.46;100.00
46241;BME280;31961;52.416;-0.732;2023-02-13T12:49:48;102431.83;;;9.07;100.00
46241;BME280;31961;52.416;-0.732;2023-02-13T12:52:27;102431.01;;;6.27;100.00
46241;BME280;31961;52.416;-0.732;2023-02-13T12:55:10;102433.90;;;7.38;100.00
46241;BME280;31961;52.416;-0.732;2023-02-13T12:57:50;102429.71;;;7.75;100.00
46241;BME280;31961;52.416;-0.732;2023-02-13T13:00:29;102429.41;;;7.56;100.00